createdAt,value
2019-05-21T00:01:03.667Z,20.93
2019-05-21T00:04:09.318Z,20.73
2019-05-21T00:07:15.238Z,21.03
2019-05-21T00:10:21.093Z,21.17
2019-05-21T00:13:26.776Z,21.20
2019-05-21T00:16:32.501Z,21.18
2019-05-21T00:19:38.192Z,21.15
2019-05-21T00:22:43.917Z,20.92
2019-05-21T00:25:50.840Z,20.94
2019-05-21T00:29:31.849Z,21.00
2019-05-21T00:33:13.234Z,20.93
2019-05-21T00:36:57.907Z,20.74
2019-05-21T00:40:39.846Z,20.63
2019-05-21T00:43:51.414Z,20.39
2019-05-21T00:46:57.230Z,20.24
2019-05-21T00:50:02.930Z,20.08
2019-05-21T00:53:08.696Z,20.20
2019-05-21T00:56:14.379Z,20.17
2019-05-21T00:59:20.114Z,20.15
2019-05-21T01:02:25.828Z,20.39
2019-05-21T01:05:31.566Z,20.44
2019-05-21T01:08:37.283Z,20.52
2019-05-21T01:11:43.095Z,20.52
2019-05-21T01:14:48.762Z,20.59
2019-05-21T01:17:54.482Z,20.62
2019-05-21T01:21:00.151Z,20.49
2019-05-21T01:24:06.195Z,20.66
2019-05-21T01:27:11.868Z,20.62
2019-05-21T01:30:17.746Z,20.70
2019-05-21T01:33:23.462Z,20.59
2019-05-21T01:36:29.319Z,20.15
2019-05-21T01:39:35.042Z,20.40
2019-05-21T01:42:40.757Z,20.52
2019-05-21T01:45:47.423Z,20.46
2019-05-21T01:48:53.089Z,19.68
2019-05-21T01:51:58.796Z,19.45
2019-05-21T01:55:04.640Z,18.96
2019-05-21T01:58:10.398Z,18.92
2019-05-21T02:01:16.088Z,19.47
2019-05-21T02:04:21.826Z,19.79
2019-05-21T02:07:27.487Z,20.03
2019-05-21T02:10:34.294Z,20.01
2019-05-21T02:13:40.009Z,19.98
2019-05-21T02:16:45.707Z,19.85
2019-05-21T02:19:51.494Z,19.51
2019-05-21T02:22:57.624Z,19.37
2019-05-21T02:26:03.388Z,19.43
2019-05-21T02:29:09.071Z,19.36
2019-05-21T02:32:14.764Z,19.25
2019-05-21T02:35:20.447Z,19.52
2019-05-21T02:38:26.146Z,19.57
2019-05-21T02:41:32.009Z,19.52
2019-05-21T02:44:37.750Z,19.37
2019-05-21T02:47:43.431Z,19.28
2019-05-21T02:50:49.281Z,19.22
2019-05-21T02:53:54.946Z,19.03
2019-05-21T02:57:00.777Z,18.95
2019-05-21T03:00:08.893Z,19.01
2019-05-21T03:03:15.460Z,18.88
2019-05-21T03:06:21.140Z,18.93
2019-05-21T03:09:26.854Z,19.16
2019-05-21T03:12:32.641Z,19.11
2019-05-21T03:15:38.385Z,19.24
2019-05-21T03:18:44.302Z,19.00
2019-05-21T03:21:49.963Z,19.17
2019-05-21T03:24:55.673Z,19.27
2019-05-21T03:28:01.426Z,19.28
2019-05-21T03:31:07.294Z,19.56
2019-05-21T03:34:13.055Z,19.65
2019-05-21T03:37:18.844Z,19.55
2019-05-21T03:40:24.652Z,19.83
2019-05-21T03:43:30.386Z,19.40
2019-05-21T03:46:36.260Z,19.29
2019-05-21T03:49:42.987Z,19.95
2019-05-21T03:52:48.872Z,20.16
2019-05-21T03:55:54.762Z,20.27
2019-05-21T03:59:00.478Z,20.31
2019-05-21T04:02:07.139Z,20.18
2019-05-21T04:05:12.877Z,20.55
2019-05-21T04:08:18.503Z,20.32
2019-05-21T04:11:24.222Z,20.60
2019-05-21T04:14:33.954Z,20.81
2019-05-21T04:17:49.335Z,21.00
2019-05-21T04:20:55.020Z,21.38
2019-05-21T04:24:00.782Z,21.58
2019-05-21T04:27:06.652Z,20.78
2019-05-21T04:30:12.449Z,21.54
2019-05-21T04:33:18.118Z,21.63
2019-05-21T04:36:23.825Z,21.78
2019-05-21T04:39:29.606Z,21.81
2019-05-21T04:42:35.320Z,22.23
2019-05-21T04:45:41.069Z,22.18
2019-05-21T04:48:46.720Z,22.29
2019-05-21T04:51:52.395Z,22.34
2019-05-21T04:54:58.037Z,22.08
2019-05-21T04:58:03.767Z,22.20
2019-05-21T05:01:09.441Z,22.08
2019-05-21T05:04:20.977Z,21.84
2019-05-21T05:07:28.115Z,22.42
2019-05-21T05:10:29.943Z,22.35
2019-05-21T05:13:35.656Z,22.24
2019-05-21T05:16:41.314Z,22.30
2019-05-21T05:19:47.081Z,22.49
2019-05-21T05:22:52.752Z,22.75
2019-05-21T05:25:58.471Z,23.08
2019-05-21T05:29:04.256Z,23.20
2019-05-21T05:32:09.977Z,23.27
2019-05-21T05:35:15.936Z,23.13
2019-05-21T05:38:21.651Z,21.85
2019-05-21T05:41:37.865Z,21.32
2019-05-21T05:44:43.534Z,21.49
2019-05-21T05:47:52.108Z,22.23
2019-05-21T05:51:01.954Z,23.18
2019-05-21T05:54:07.945Z,23.82
2019-05-21T05:57:16.412Z,23.36
2019-05-21T06:00:22.641Z,23.73
2019-05-21T06:03:28.346Z,23.38
2019-05-21T06:06:34.129Z,23.61
2019-05-21T06:09:39.914Z,23.41
2019-05-21T06:12:50.172Z,24.35
2019-05-21T06:15:57.555Z,24.60
2019-05-21T06:19:03.342Z,25.17
2019-05-21T06:22:11.701Z,25.05
2019-05-21T06:25:22.932Z,25.07
2019-05-21T06:28:28.811Z,25.06
2019-05-21T06:31:35.504Z,25.66
2019-05-21T06:34:41.205Z,26.23
2019-05-21T06:37:46.870Z,26.09
2019-05-21T06:40:52.543Z,26.36
2019-05-21T06:43:58.345Z,26.48
2019-05-21T06:47:06.712Z,26.87
2019-05-21T06:50:12.550Z,26.67
2019-05-21T06:53:18.206Z,26.31
2019-05-21T06:56:26.578Z,25.98
2019-05-21T06:59:32.231Z,26.48
2019-05-21T07:02:37.970Z,26.29
2019-05-21T07:05:57.495Z,26.92
2019-05-21T07:08:51.139Z,27.21
2019-05-21T07:11:56.849Z,27.16
2019-05-21T07:15:02.603Z,27.84
2019-05-21T07:18:08.368Z,27.52
2019-05-21T07:21:14.263Z,27.83
2019-05-21T07:24:20.065Z,28.22
2019-05-21T07:27:25.801Z,28.70
2019-05-21T07:30:31.707Z,28.36
2019-05-21T07:33:37.590Z,28.48
2019-05-21T07:36:43.388Z,28.54
2019-05-21T07:39:52.836Z,29.04
2019-05-21T07:42:58.579Z,28.87
2019-05-21T07:46:04.278Z,28.55
2019-05-21T07:49:10.006Z,28.52
2019-05-21T07:52:15.681Z,28.72
2019-05-21T07:55:21.421Z,28.36
2019-05-21T07:58:33.194Z,28.96
2019-05-21T08:01:38.924Z,29.03
2019-05-21T08:04:44.605Z,28.98
2019-05-21T08:07:50.331Z,29.06
2019-05-21T08:10:56.059Z,29.16
2019-05-21T08:14:01.796Z,28.65
2019-05-21T08:17:07.729Z,28.86
2019-05-21T08:20:14.230Z,29.08
2019-05-21T08:23:19.974Z,29.30
2019-05-21T08:26:25.655Z,29.27
2019-05-21T08:29:31.668Z,29.09
2019-05-21T08:32:38.653Z,29.19
2019-05-21T08:35:45.533Z,29.65
2019-05-21T08:38:51.238Z,29.47
2019-05-21T08:41:56.976Z,29.49
2019-05-21T08:45:03.806Z,29.19
2019-05-21T08:48:09.892Z,29.05
2019-05-21T08:51:15.821Z,29.08
2019-05-21T08:54:40.348Z,29.13
2019-05-21T08:58:05.085Z,28.81
2019-05-21T09:00:53.621Z,28.90
2019-05-21T09:04:01.881Z,28.67
2019-05-21T09:07:07.647Z,29.10
2019-05-21T09:10:16.233Z,29.03
2019-05-21T09:13:22.002Z,29.27
2019-05-21T09:16:27.803Z,29.14
2019-05-21T09:19:36.379Z,28.80
2019-05-21T09:22:41.051Z,28.72
2019-05-21T09:25:49.579Z,29.38
2019-05-21T09:28:54.307Z,29.33
2019-05-21T09:31:59.960Z,29.18
2019-05-21T09:35:06.499Z,28.28
2019-05-21T09:38:12.256Z,28.74
2019-05-21T09:41:18.092Z,29.01
2019-05-21T09:44:23.981Z,29.15
2019-05-21T09:47:29.928Z,29.30
2019-05-21T09:50:35.685Z,29.18
2019-05-21T09:53:41.408Z,29.62
2019-05-21T09:56:47.180Z,30.11
2019-05-21T09:59:59.694Z,30.04
2019-05-21T10:03:07.944Z,30.04
2019-05-21T10:06:13.644Z,30.00
2019-05-21T10:09:20.425Z,30.06
2019-05-21T10:12:26.219Z,30.05
2019-05-21T10:15:33.171Z,30.01
2019-05-21T10:18:38.960Z,30.18
2019-05-21T10:21:44.733Z,29.36
2019-05-21T10:24:50.412Z,29.42
2019-05-21T10:27:56.070Z,28.79
2019-05-21T10:31:01.808Z,29.29
2019-05-21T10:34:07.519Z,29.40
2019-05-21T10:37:13.290Z,29.59
2019-05-21T10:40:19.351Z,29.66
2019-05-21T10:43:25.111Z,29.64
2019-05-21T10:46:31.183Z,29.78
2019-05-21T10:49:36.932Z,28.95
2019-05-21T10:52:42.646Z,29.37
2019-05-21T10:55:48.428Z,29.69
2019-05-21T10:58:54.204Z,29.78
2019-05-21T11:02:24.727Z,30.03
2019-05-21T11:05:34.449Z,30.14
2019-05-21T11:08:40.414Z,30.26
2019-05-21T11:11:48.618Z,29.76
2019-05-21T11:14:54.458Z,29.77
2019-05-21T11:18:10.342Z,30.22
2019-05-21T11:21:08.379Z,30.02
2019-05-21T11:24:15.085Z,30.43
2019-05-21T11:27:20.883Z,30.55
2019-05-21T11:30:26.641Z,30.61
2019-05-21T11:33:32.339Z,30.26
2019-05-21T11:36:38.145Z,30.10
2019-05-21T11:39:47.611Z,30.63
2019-05-21T11:42:53.505Z,30.78
2019-05-21T11:46:03.019Z,30.64
2019-05-21T11:49:12.444Z,30.91
2019-05-21T11:52:18.663Z,30.83
2019-05-21T11:55:24.469Z,30.05
2019-05-21T11:58:41.070Z,29.65
2019-05-21T12:01:46.946Z,29.25
2019-05-21T12:04:52.690Z,28.70
2019-05-21T12:07:58.506Z,28.95
2019-05-21T12:11:05.455Z,28.65
2019-05-21T12:14:11.112Z,28.49
2019-05-21T12:17:17.020Z,29.44
2019-05-21T12:20:36.153Z,29.93
2019-05-21T12:23:30.379Z,30.44
2019-05-21T12:26:37.262Z,31.04
2019-05-21T12:29:43.003Z,30.60
2019-05-21T12:32:48.661Z,30.63
2019-05-21T12:35:54.425Z,30.10
2019-05-21T12:39:13.669Z,29.95
2019-05-21T12:42:07.791Z,29.97
2019-05-21T12:45:13.885Z,30.56
2019-05-21T12:48:24.005Z,30.53
2019-05-21T12:51:29.876Z,29.98
2019-05-21T12:54:39.360Z,29.45
2019-05-21T12:57:45.031Z,29.45
2019-05-21T13:00:50.990Z,29.53
2019-05-21T13:03:56.695Z,29.40
2019-05-21T13:07:02.480Z,28.95
2019-05-21T13:10:09.257Z,28.98
2019-05-21T13:13:22.841Z,28.86
2019-05-21T13:16:28.517Z,29.44
2019-05-21T13:19:34.177Z,29.48
2019-05-21T13:22:39.914Z,29.56
2019-05-21T13:25:45.801Z,29.36
2019-05-21T13:28:51.549Z,29.48
2019-05-21T13:31:57.225Z,29.62
2019-05-21T13:35:03.413Z,29.10
2019-05-21T13:38:13.549Z,29.50
2019-05-21T13:41:17.967Z,29.45
2019-05-21T13:44:23.671Z,29.77
2019-05-21T13:47:29.445Z,29.40
2019-05-21T13:50:35.105Z,28.82
2019-05-21T13:53:40.774Z,29.01
2019-05-21T13:56:46.435Z,29.58
2019-05-21T13:59:52.155Z,30.00
2019-05-21T14:02:57.876Z,29.69
2019-05-21T14:06:03.698Z,29.19
2019-05-21T14:09:10.087Z,28.85
2019-05-21T14:12:16.489Z,28.55
2019-05-21T14:15:22.419Z,28.49
2019-05-21T14:18:28.076Z,28.88
2019-05-21T14:21:34.180Z,29.56
2019-05-21T14:24:39.859Z,30.15
2019-05-21T14:27:45.969Z,30.61
2019-05-21T14:30:51.588Z,30.61
2019-05-21T14:33:57.393Z,30.42
2019-05-21T14:37:04.492Z,30.31
2019-05-21T14:40:12.126Z,30.48
2019-05-21T14:43:18.229Z,30.76
2019-05-21T14:46:24.060Z,30.48
2019-05-21T14:49:29.896Z,30.76
2019-05-21T14:52:35.578Z,30.72
2019-05-21T14:55:41.450Z,30.50
2019-05-21T14:58:47.130Z,30.02
2019-05-21T15:01:58.195Z,29.95
2019-05-21T15:05:04.955Z,29.96
2019-05-21T15:08:10.749Z,30.15
2019-05-21T15:11:16.641Z,30.05
2019-05-21T15:14:22.504Z,30.23
2019-05-21T15:17:28.237Z,30.00
2019-05-21T15:20:48.275Z,30.21
2019-05-21T15:23:53.973Z,30.24
2019-05-21T15:26:59.722Z,30.34
2019-05-21T15:30:05.930Z,30.36
2019-05-21T15:33:11.744Z,30.35
2019-05-21T15:36:17.447Z,30.11
2019-05-21T15:39:23.115Z,30.07
2019-05-21T15:42:28.998Z,29.43
2019-05-21T15:45:34.933Z,29.40
2019-05-21T15:48:40.664Z,29.06
2019-05-21T15:51:46.489Z,29.24
2019-05-21T15:54:52.206Z,29.58
2019-05-21T15:57:57.929Z,29.78
2019-05-21T16:01:04.831Z,29.60
2019-05-21T16:04:10.496Z,29.68
2019-05-21T16:07:16.267Z,29.71
2019-05-21T16:10:22.070Z,29.63
2019-05-21T16:13:27.851Z,29.75
2019-05-21T16:16:33.535Z,29.88
2019-05-21T16:19:39.374Z,29.51
2019-05-21T16:22:45.063Z,29.62
2019-05-21T16:25:50.835Z,29.66
2019-05-21T16:28:56.569Z,29.16
2019-05-21T16:32:02.389Z,29.27
2019-05-21T16:35:11.643Z,29.17
2019-05-21T16:38:17.486Z,29.06
2019-05-21T16:41:24.782Z,29.19
2019-05-21T16:44:30.809Z,29.33
2019-05-21T16:47:45.920Z,29.17
2019-05-21T16:50:44.195Z,29.23
2019-05-21T16:53:49.951Z,29.07
2019-05-21T16:56:57.842Z,28.70
2019-05-21T17:00:03.310Z,28.36
2019-05-21T17:03:10.238Z,28.07
2019-05-21T17:06:15.967Z,28.09
2019-05-21T17:09:21.656Z,27.77
2019-05-21T17:12:27.420Z,27.63
2019-05-21T17:15:33.368Z,27.45
2019-05-21T17:18:39.051Z,27.33
2019-05-21T17:21:45.294Z,27.20
2019-05-21T17:24:52.066Z,26.90
2019-05-21T17:27:57.753Z,26.87
2019-05-21T17:31:03.540Z,26.72
2019-05-21T17:34:10.357Z,26.50
2019-05-21T17:37:16.429Z,26.53
2019-05-21T17:40:22.221Z,26.48
2019-05-21T17:43:28.082Z,26.40
2019-05-21T17:46:36.833Z,26.21
2019-05-21T17:49:43.902Z,26.12
2019-05-21T17:52:49.788Z,26.03
2019-05-21T17:55:59.108Z,26.08
2019-05-21T17:59:04.892Z,26.10
2019-05-21T18:02:13.814Z,25.98
2019-05-21T18:05:20.953Z,25.94
2019-05-21T18:08:26.731Z,25.89
2019-05-21T18:11:33.738Z,25.85
2019-05-21T18:14:39.679Z,25.81
2019-05-21T18:17:46.130Z,25.70
2019-05-21T18:20:54.788Z,25.75
2019-05-21T18:24:00.678Z,25.69
2019-05-21T18:27:06.537Z,25.29
2019-05-21T18:30:12.996Z,25.30
2019-05-21T18:33:18.880Z,25.29
2019-05-21T18:36:24.921Z,25.36
2019-05-21T18:39:33.790Z,25.22
2019-05-21T18:42:39.288Z,25.17
2019-05-21T18:45:45.026Z,25.16
2019-05-21T18:48:52.251Z,25.03
2019-05-21T18:51:57.997Z,25.04
2019-05-21T18:55:03.751Z,24.90
2019-05-21T18:58:11.084Z,24.93
2019-05-21T19:01:17.235Z,24.86
2019-05-21T19:04:22.991Z,24.68
2019-05-21T19:07:28.735Z,24.74
2019-05-21T19:10:35.711Z,24.72
2019-05-21T19:13:41.753Z,24.69
2019-05-21T19:16:47.515Z,24.61
2019-05-21T19:19:53.459Z,24.46
2019-05-21T19:23:17.953Z,24.39
2019-05-21T19:26:36.821Z,24.27
2019-05-21T19:29:45.243Z,24.37
2019-05-21T19:33:31.730Z,24.25
2019-05-21T19:36:56.006Z,24.33
2019-05-21T19:44:38.465Z,24.04
2019-05-21T19:55:58.665Z,23.98
2019-05-21T19:59:43.542Z,23.87
2019-05-21T20:11:48.542Z,23.81
2019-05-21T20:15:23.277Z,23.59
2019-05-21T20:20:25.107Z,23.54
2019-05-21T20:27:57.422Z,23.31
2019-05-21T20:31:17.278Z,23.41
2019-05-21T20:35:21.808Z,23.39
2019-05-21T20:46:41.391Z,23.40
2019-05-21T20:50:06.171Z,23.54
2019-05-21T20:53:11.919Z,23.60
2019-05-21T20:56:27.320Z,23.51
2019-05-21T20:59:33.343Z,23.47
2019-05-21T21:02:44.036Z,23.46
2019-05-21T21:05:50.043Z,23.46
2019-05-21T21:08:57.571Z,23.30
2019-05-21T21:12:06.345Z,23.36
2019-05-21T21:15:13.037Z,23.12
2019-05-21T21:18:19.795Z,22.95
2019-05-21T21:21:26.764Z,23.03
2019-05-21T21:24:33.319Z,22.89
2019-05-21T21:27:39.226Z,23.00
2019-05-21T21:30:45.434Z,22.58
2019-05-21T21:33:51.336Z,22.81
2019-05-21T21:40:11.925Z,23.00
2019-05-21T21:43:19.113Z,22.98
2019-05-21T21:46:24.854Z,22.99
2019-05-21T21:49:31.579Z,23.06
2019-05-21T21:52:40.690Z,23.12
2019-05-21T21:55:46.582Z,23.04
2019-05-21T21:58:52.367Z,22.85
2019-05-21T22:02:03.794Z,22.77
2019-05-21T22:05:10.910Z,22.66
2019-05-21T22:08:17.199Z,22.65
2019-05-21T22:11:23.914Z,22.58
2019-05-21T22:14:30.312Z,22.30
2019-05-21T22:17:36.397Z,22.50
2019-05-21T22:20:42.426Z,22.54
2019-05-21T22:23:50.868Z,22.37
2019-05-21T22:26:56.996Z,22.40
2019-05-21T22:30:03.198Z,22.36
2019-05-21T22:33:12.361Z,22.31
2019-05-21T22:36:18.598Z,22.15
2019-05-21T22:39:26.598Z,22.26
2019-05-21T22:42:33.017Z,22.25
2019-05-21T22:45:38.771Z,22.38
2019-05-21T22:48:45.271Z,22.35
2019-05-21T22:51:51.363Z,22.15
2019-05-21T22:54:57.033Z,22.26
2019-05-21T22:58:02.725Z,22.28
2019-05-21T23:01:12.105Z,21.86
2019-05-21T23:04:18.611Z,21.73
2019-05-21T23:07:29.121Z,21.20
2019-05-21T23:10:34.874Z,21.10
2019-05-21T23:13:40.721Z,20.64
2019-05-21T23:16:49.685Z,20.81
2019-05-21T23:20:07.459Z,20.96
2019-05-21T23:23:15.550Z,20.82
2019-05-21T23:26:21.748Z,20.11
2019-05-21T23:29:30.988Z,19.75
2019-05-21T23:32:37.813Z,20.12
2019-05-21T23:35:43.933Z,20.32
2019-05-21T23:38:52.223Z,20.05
2019-05-21T23:41:58.011Z,20.03
2019-05-21T23:45:05.431Z,20.25
2019-05-21T23:48:12.610Z,20.32
2019-05-21T23:51:18.344Z,20.56
2019-05-21T23:54:24.266Z,20.70
2019-05-21T23:57:30.815Z,20.77
